sensor_id;sensor_type;location;lat;lon;timestamp;temperature;humidity
3071;DHT22;1546;47.208;9.038;2022-10-16T00:02:13;16.10;99.90
3071;DHT22;1546;47.208;9.038;2022-10-16T00:04:40;16.10;99.90
3071;DHT22;1546;47.208;9.038;2022-10-16T00:07:07;16.10;99.90
3071;DHT22;1546;47.208;9.038;2022-10-16T00:09:33;16.00;99.90
3071;DHT22;1546;47.208;9.038;2022-10-16T00:12:00;15.80;99.90
3071;DHT22;1546;47.208;9.038;2022-10-16T00:14:30;15.60;99.90
3071;DHT22;1546;47.208;9.038;2022-10-16T00:16:57;15.40;99.90
3071;DHT22;1546;47.208;9.038;2022-10-16T00:19:24;15.30;99.90
3071;DHT22;1546;47.208;9.038;2022-10-16T00:21:51;15.20;99.90
3071;DHT22;1546;47.208;9.038;2022-10-16T00:24:17;15.20;99.90
3071;DHT22;1546;47.208;9.038;2022-10-16T00:26:45;15.30;99.90
3071;DHT22;1546;47.208;9.038;2022-10-16T00:29:11;15.30;99.90
3071;DHT22;1546;47.208;9.038;2022-10-16T00:31:40;15.40;99.90
3071;DHT22;1546;47.208;9.038;2022-10-16T00:34:06;15.40;99.90
3071;DHT22;1546;47.208;9.038;2022-10-16T00:36:33;15.40;99.90
3071;DHT22;1546;47.208;9.038;2022-10-16T00:39:01;15.60;99.90
3071;DHT22;1546;47.208;9.038;2022-10-16T00:41:29;15.70;99.90
3071;DHT22;1546;47.208;9.038;2022-10-16T00:43:58;15.60;99.90
3071;DHT22;1546;47.208;9.038;2022-10-16T00:46:27;15.60;99.90
3071;DHT22;1546;47.208;9.038;2022-10-16T00:48:59;15.80;99.90
3071;DHT22;1546;47.208;9.038;2022-10-16T00:51:31;15.90;99.90
3071;DHT22;1546;47.208;9.038;2022-10-16T00:53:59;15.80;99.90
3071;DHT22;1546;47.208;9.038;2022-10-16T00:56:27;15.70;99.90
3071;DHT22;1546;47.208;9.038;2022-10-16T00:58:54;15.60;99.90
3071;DHT22;1546;47.208;9.038;2022-10-16T01:01:20;15.60;99.90
3071;DHT22;1546;47.208;9.038;2022-10-16T01:03:47;15.70;99.90
3071;DHT22;1546;47.208;9.038;2022-10-16T01:06:23;15.80;99.90
3071;DHT22;1546;47.208;9.038;2022-10-16T01:09:06;15.80;99.90
3071;DHT22;1546;47.208;9.038;2022-10-16T01:11:41;15.70;99.90
3071;DHT22;1546;47.208;9.038;2022-10-16T01:14:17;15.50;99.90
3071;DHT22;1546;47.208;9.038;2022-10-16T01:16:50;15.50;99.90
3071;DHT22;1546;47.208;9.038;2022-10-16T01:19:36;15.50;99.90
3071;DHT22;1546;47.208;9.038;2022-10-16T01:22:07;15.50;99.90
3071;DHT22;1546;47.208;9.038;2022-10-16T01:24:39;15.60;99.90
3071;DHT22;1546;47.208;9.038;2022-10-16T01:27:10;15.60;99.90
3071;DHT22;1546;47.208;9.038;2022-10-16T01:29:42;15.50;99.90
3071;DHT22;1546;47.208;9.038;2022-10-16T01:32:16;15.40;99.90
3071;DHT22;1546;47.208;9.038;2022-10-16T01:34:48;15.50;99.90
3071;DHT22;1546;47.208;9.038;2022-10-16T01:37:21;15.70;99.90
3071;DHT22;1546;47.208;9.038;2022-10-16T01:39:49;15.80;99.90
3071;DHT22;1546;47.208;9.038;2022-10-16T01:42:21;15.80;99.90
3071;DHT22;1546;47.208;9.038;2022-10-16T01:44:50;15.80;99.90
3071;DHT22;1546;47.208;9.038;2022-10-16T01:47:19;15.70;99.90
3071;DHT22;1546;47.208;9.038;2022-10-16T01:49:48;15.70;99.90
3071;DHT22;1546;47.208;9.038;2022-10-16T01:52:19;15.70;99.90
3071;DHT22;1546;47.208;9.038;2022-10-16T01:54:50;15.70;99.90
3071;DHT22;1546;47.208;9.038;2022-10-16T01:57:21;15.60;99.90
3071;DHT22;1546;47.208;9.038;2022-10-16T01:59:52;15.70;99.90
3071;DHT22;1546;47.208;9.038;2022-10-16T02:02:20;15.60;99.90
3071;DHT22;1546;47.208;9.038;2022-10-16T02:04:51;15.60;99.90
3071;DHT22;1546;47.208;9.038;2022-10-16T02:07:20;15.50;99.90
3071;DHT22;1546;47.208;9.038;2022-10-16T02:09:47;15.50;99.90
3071;DHT22;1546;47.208;9.038;2022-10-16T02:12:16;15.40;99.90
3071;DHT22;1546;47.208;9.038;2022-10-16T02:14:47;15.50;99.90
3071;DHT22;1546;47.208;9.038;2022-10-16T02:17:15;15.50;99.90
3071;DHT22;1546;47.208;9.038;2022-10-16T02:19:44;15.50;99.90
3071;DHT22;1546;47.208;9.038;2022-10-16T02:22:16;15.40;99.90
3071;DHT22;1546;47.208;9.038;2022-10-16T02:24:52;15.40;99.90
3071;DHT22;1546;47.208;9.038;2022-10-16T02:27:25;15.50;99.90
3071;DHT22;1546;47.208;9.038;2022-10-16T02:29:58;15.50;99.90
3071;DHT22;1546;47.208;9.038;2022-10-16T02:32:30;15.40;99.90
3071;DHT22;1546;47.208;9.038;2022-10-16T02:34:58;15.30;99.90
3071;DHT22;1546;47.208;9.038;2022-10-16T02:37:27;15.20;99.90
3071;DHT22;1546;47.208;9.038;2022-10-16T02:39:55;15.00;99.90
3071;DHT22;1546;47.208;9.038;2022-10-16T02:42:28;15.10;99.90
3071;DHT22;1546;47.208;9.038;2022-10-16T02:44:56;15.10;99.90
3071;DHT22;1546;47.208;9.038;2022-10-16T02:47:23;15.20;99.90
3071;DHT22;1546;47.208;9.038;2022-10-16T02:49:49;15.10;99.90
3071;DHT22;1546;47.208;9.038;2022-10-16T02:52:16;15.00;99.90
3071;DHT22;1546;47.208;9.038;2022-10-16T02:54:43;14.80;99.90
3071;DHT22;1546;47.208;9.038;2022-10-16T02:57:10;14.70;99.90
3071;DHT22;1546;47.208;9.038;2022-10-16T02:59:37;14.50;99.90
3071;DHT22;1546;47.208;9.038;2022-10-16T03:02:05;14.50;99.90
3071;DHT22;1546;47.208;9.038;2022-10-16T03:04:32;14.50;99.90
3071;DHT22;1546;47.208;9.038;2022-10-16T03:06:59;14.50;99.90
3071;DHT22;1546;47.208;9.038;2022-10-16T03:09:26;14.60;99.90
3071;DHT22;1546;47.208;9.038;2022-10-16T03:11:52;14.50;99.90
3071;DHT22;1546;47.208;9.038;2022-10-16T03:14:19;14.50;99.90
3071;DHT22;1546;47.208;9.038;2022-10-16T03:16:46;14.40;99.90
3071;DHT22;1546;47.208;9.038;2022-10-16T03:19:16;14.40;99.90
3071;DHT22;1546;47.208;9.038;2022-10-16T03:21:43;14.50;99.90
3071;DHT22;1546;47.208;9.038;2022-10-16T03:24:09;14.50;99.90
3071;DHT22;1546;47.208;9.038;2022-10-16T03:26:36;14.40;99.90
3071;DHT22;1546;47.208;9.038;2022-10-16T03:29:03;14.40;99.90
3071;DHT22;1546;47.208;9.038;2022-10-16T03:31:30;14.40;99.90
3071;DHT22;1546;47.208;9.038;2022-10-16T03:33:57;14.50;99.90
3071;DHT22;1546;47.208;9.038;2022-10-16T03:36:26;14.50;99.90
3071;DHT22;1546;47.208;9.038;2022-10-16T03:38:52;14.50;99.90
3071;DHT22;1546;47.208;9.038;2022-10-16T03:41:19;14.40;99.90
3071;DHT22;1546;47.208;9.038;2022-10-16T03:43:46;14.40;99.90
3071;DHT22;1546;47.208;9.038;2022-10-16T03:46:13;14.40;99.90
3071;DHT22;1546;47.208;9.038;2022-10-16T03:48:40;14.20;99.90
3071;DHT22;1546;47.208;9.038;2022-10-16T03:51:07;14.20;99.90
3071;DHT22;1546;47.208;9.038;2022-10-16T03:53:35;14.20;99.90
3071;DHT22;1546;47.208;9.038;2022-10-16T03:56:02;14.20;99.90
3071;DHT22;1546;47.208;9.038;2022-10-16T03:58:29;14.20;99.90
3071;DHT22;1546;47.208;9.038;2022-10-16T04:00:56;14.20;99.90
3071;DHT22;1546;47.208;9.038;2022-10-16T04:03:23;14.20;99.90
3071;DHT22;1546;47.208;9.038;2022-10-16T04:05:49;14.20;99.90
3071;DHT22;1546;47.208;9.038;2022-10-16T04:08:16;14.20;99.90
3071;DHT22;1546;47.208;9.038;2022-10-16T04:10:45;14.10;99.90
3071;DHT22;1546;47.208;9.038;2022-10-16T04:13:12;14.10;99.90
3071;DHT22;1546;47.208;9.038;2022-10-16T04:15:39;14.00;99.90
3071;DHT22;1546;47.208;9.038;2022-10-16T04:18:06;14.10;99.90
3071;DHT22;1546;47.208;9.038;2022-10-16T04:20:33;14.10;99.90
3071;DHT22;1546;47.208;9.038;2022-10-16T04:23:00;14.20;99.90
3071;DHT22;1546;47.208;9.038;2022-10-16T04:25:27;14.20;99.90
3071;DHT22;1546;47.208;9.038;2022-10-16T04:27:56;14.20;99.90
3071;DHT22;1546;47.208;9.038;2022-10-16T04:30:23;14.20;99.90
3071;DHT22;1546;47.208;9.038;2022-10-16T04:32:50;14.20;99.90
3071;DHT22;1546;47.208;9.038;2022-10-16T04:35:17;14.20;99.90
3071;DHT22;1546;47.208;9.038;2022-10-16T04:37:45;14.20;99.90
3071;DHT22;1546;47.208;9.038;2022-10-16T04:40:12;14.30;99.90
3071;DHT22;1546;47.208;9.038;2022-10-16T04:42:39;14.30;99.90
3071;DHT22;1546;47.208;9.038;2022-10-16T04:45:08;14.30;99.90
3071;DHT22;1546;47.208;9.038;2022-10-16T04:47:35;14.30;99.90
3071;DHT22;1546;47.208;9.038;2022-10-16T04:50:02;14.40;99.90
3071;DHT22;1546;47.208;9.038;2022-10-16T04:52:29;14.30;99.90
3071;DHT22;1546;47.208;9.038;2022-10-16T04:54:57;14.20;99.90
3071;DHT22;1546;47.208;9.038;2022-10-16T04:57:26;14.30;99.90
3071;DHT22;1546;47.208;9.038;2022-10-16T04:59:53;14.30;99.90
3071;DHT22;1546;47.208;9.038;2022-10-16T05:02:22;14.50;99.90
3071;DHT22;1546;47.208;9.038;2022-10-16T05:04:48;14.50;99.90
3071;DHT22;1546;47.208;9.038;2022-10-16T05:07:15;14.50;99.90
3071;DHT22;1546;47.208;9.038;2022-10-16T05:09:42;14.50;99.90
3071;DHT22;1546;47.208;9.038;2022-10-16T05:12:09;14.60;99.90
3071;DHT22;1546;47.208;9.038;2022-10-16T05:14:35;14.60;99.90
3071;DHT22;1546;47.208;9.038;2022-10-16T05:17:02;14.50;99.90
3071;DHT22;1546;47.208;9.038;2022-10-16T05:19:30;14.40;99.90
3071;DHT22;1546;47.208;9.038;2022-10-16T05:21:57;14.50;99.90
3071;DHT22;1546;47.208;9.038;2022-10-16T05:24:24;14.50;99.90
3071;DHT22;1546;47.208;9.038;2022-10-16T05:26:51;14.60;99.90
3071;DHT22;1546;47.208;9.038;2022-10-16T05:29:18;14.60;99.90
3071;DHT22;1546;47.208;9.038;2022-10-16T05:31:45;14.50;99.90
3071;DHT22;1546;47.208;9.038;2022-10-16T05:34:12;14.40;99.90
3071;DHT22;1546;47.208;9.038;2022-10-16T05:36:40;14.50;99.90
3071;DHT22;1546;47.208;9.038;2022-10-16T05:39:07;14.50;99.90
3071;DHT22;1546;47.208;9.038;2022-10-16T05:41:33;14.50;99.90
3071;DHT22;1546;47.208;9.038;2022-10-16T05:44:04;14.50;99.90
3071;DHT22;1546;47.208;9.038;2022-10-16T05:46:30;14.30;99.90
3071;DHT22;1546;47.208;9.038;2022-10-16T05:48:57;14.30;99.90
3071;DHT22;1546;47.208;9.038;2022-10-16T05:51:24;14.10;99.90
3071;DHT22;1546;47.208;9.038;2022-10-16T05:53:52;14.20;99.90
3071;DHT22;1546;47.208;9.038;2022-10-16T05:56:20;14.20;99.90
3071;DHT22;1546;47.208;9.038;2022-10-16T05:58:46;14.20;99.90
3071;DHT22;1546;47.208;9.038;2022-10-16T06:01:15;14.20;99.90
3071;DHT22;1546;47.208;9.038;2022-10-16T06:03:42;14.20;99.90
3071;DHT22;1546;47.208;9.038;2022-10-16T06:06:10;14.30;99.90
3071;DHT22;1546;47.208;9.038;2022-10-16T06:08:38;14.40;99.90
3071;DHT22;1546;47.208;9.038;2022-10-16T06:11:08;14.40;99.90
3071;DHT22;1546;47.208;9.038;2022-10-16T06:13:35;14.30;99.90
3071;DHT22;1546;47.208;9.038;2022-10-16T06:16:03;14.40;99.90
3071;DHT22;1546;47.208;9.038;2022-10-16T06:18:30;14.40;99.90
3071;DHT22;1546;47.208;9.038;2022-10-16T06:20:58;14.50;99.90
3071;DHT22;1546;47.208;9.038;2022-10-16T06:23:25;14.50;99.90
3071;DHT22;1546;47.208;9.038;2022-10-16T06:25:52;14.40;99.90
3071;DHT22;1546;47.208;9.038;2022-10-16T06:28:20;14.40;99.90
3071;DHT22;1546;47.208;9.038;2022-10-16T06:30:47;14.40;99.90
3071;DHT22;1546;47.208;9.038;2022-10-16T06:33:14;14.40;99.90
3071;DHT22;1546;47.208;9.038;2022-10-16T06:35:40;14.50;99.90
3071;DHT22;1546;47.208;9.038;2022-10-16T06:38:07;14.50;99.90
3071;DHT22;1546;47.208;9.038;2022-10-16T06:40:34;14.60;99.90
3071;DHT22;1546;47.208;9.038;2022-10-16T06:43:01;14.70;99.90
3071;DHT22;1546;47.208;9.038;2022-10-16T06:45:29;14.60;99.90
3071;DHT22;1546;47.208;9.038;2022-10-16T06:47:56;14.80;99.90
3071;DHT22;1546;47.208;9.038;2022-10-16T06:50:23;15.10;99.90
3071;DHT22;1546;47.208;9.038;2022-10-16T06:52:49;15.30;99.90
3071;DHT22;1546;47.208;9.038;2022-10-16T06:55:16;15.30;99.90
3071;DHT22;1546;47.208;9.038;2022-10-16T06:57:43;15.30;99.90
3071;DHT22;1546;47.208;9.038;2022-10-16T07:00:13;15.30;99.90
3071;DHT22;1546;47.208;9.038;2022-10-16T07:02:41;15.40;99.90
3071;DHT22;1546;47.208;9.038;2022-10-16T07:05:08;15.60;99.90
3071;DHT22;1546;47.208;9.038;2022-10-16T07:07:35;15.70;99.90
3071;DHT22;1546;47.208;9.038;2022-10-16T07:10:02;15.80;99.90
3071;DHT22;1546;47.208;9.038;2022-10-16T07:12:29;15.90;99.90
3071;DHT22;1546;47.208;9.038;2022-10-16T07:14:56;16.10;99.90
3071;DHT22;1546;47.208;9.038;2022-10-16T07:17:23;16.20;99.90
3071;DHT22;1546;47.208;9.038;2022-10-16T07:19:51;16.30;99.90
3071;DHT22;1546;47.208;9.038;2022-10-16T07:22:18;16.50;99.90
3071;DHT22;1546;47.208;9.038;2022-10-16T07:24:45;16.70;99.90
3071;DHT22;1546;47.208;9.038;2022-10-16T07:27:12;16.70;99.90
3071;DHT22;1546;47.208;9.038;2022-10-16T07:29:41;16.80;99.90
3071;DHT22;1546;47.208;9.038;2022-10-16T07:32:07;16.70;99.90
3071;DHT22;1546;47.208;9.038;2022-10-16T07:34:34;16.70;99.90
3071;DHT22;1546;47.208;9.038;2022-10-16T07:37:02;16.70;99.90
3071;DHT22;1546;47.208;9.038;2022-10-16T07:39:29;16.70;99.90
3071;DHT22;1546;47.208;9.038;2022-10-16T07:41:56;16.80;99.90
3071;DHT22;1546;47.208;9.038;2022-10-16T07:44:23;16.80;99.90
3071;DHT22;1546;47.208;9.038;2022-10-16T07:46:50;16.80;99.90
3071;DHT22;1546;47.208;9.038;2022-10-16T07:49:16;16.80;99.90
3071;DHT22;1546;47.208;9.038;2022-10-16T07:51:43;16.90;99.90
3071;DHT22;1546;47.208;9.038;2022-10-16T07:54:11;17.00;99.90
3071;DHT22;1546;47.208;9.038;2022-10-16T07:56:38;17.30;99.90
3071;DHT22;1546;47.208;9.038;2022-10-16T07:59:05;17.40;99.90
3071;DHT22;1546;47.208;9.038;2022-10-16T08:01:32;17.80;99.90
3071;DHT22;1546;47.208;9.038;2022-10-16T08:03:59;18.10;99.90
3071;DHT22;1546;47.208;9.038;2022-10-16T08:06:25;18.30;99.90
3071;DHT22;1546;47.208;9.038;2022-10-16T08:08:52;18.50;99.90
3071;DHT22;1546;47.208;9.038;2022-10-16T08:11:20;18.80;99.90
3071;DHT22;1546;47.208;9.038;2022-10-16T08:13:48;19.10;99.90
3071;DHT22;1546;47.208;9.038;2022-10-16T08:16:15;19.10;99.90
3071;DHT22;1546;47.208;9.038;2022-10-16T08:18:43;19.00;99.90
3071;DHT22;1546;47.208;9.038;2022-10-16T08:21:13;18.80;99.90
3071;DHT22;1546;47.208;9.038;2022-10-16T08:23:40;19.00;99.90
3071;DHT22;1546;47.208;9.038;2022-10-16T08:26:08;19.20;99.90
3071;DHT22;1546;47.208;9.038;2022-10-16T08:28:37;19.40;99.90
3071;DHT22;1546;47.208;9.038;2022-10-16T08:31:08;19.50;99.90
3071;DHT22;1546;47.208;9.038;2022-10-16T08:33:35;19.40;99.90
3071;DHT22;1546;47.208;9.038;2022-10-16T08:36:03;19.30;99.90
3071;DHT22;1546;47.208;9.038;2022-10-16T08:38:30;19.70;99.90
3071;DHT22;1546;47.208;9.038;2022-10-16T08:41:04;20.30;99.90
3071;DHT22;1546;47.208;9.038;2022-10-16T08:44:02;20.60;99.90
3071;DHT22;1546;47.208;9.038;2022-10-16T08:46:40;21.10;99.90
3071;DHT22;1546;47.208;9.038;2022-10-16T08:49:11;21.10;99.20
3071;DHT22;1546;47.208;9.038;2022-10-16T08:51:39;21.30;98.90
3071;DHT22;1546;47.208;9.038;2022-10-16T08:54:21;21.40;98.90
3071;DHT22;1546;47.208;9.038;2022-10-16T08:56:49;21.30;98.40
3071;DHT22;1546;47.208;9.038;2022-10-16T08:59:18;21.10;99.00
3071;DHT22;1546;47.208;9.038;2022-10-16T09:01:47;21.00;99.60
3071;DHT22;1546;47.208;9.038;2022-10-16T09:04:48;20.80;99.90
3071;DHT22;1546;47.208;9.038;2022-10-16T09:07:21;20.80;99.90
3071;DHT22;1546;47.208;9.038;2022-10-16T09:10:03;20.60;99.90
3071;DHT22;1546;47.208;9.038;2022-10-16T09:12:38;20.40;99.90
3071;DHT22;1546;47.208;9.038;2022-10-16T09:15:17;20.20;99.90
3071;DHT22;1546;47.208;9.038;2022-10-16T09:17:53;19.90;99.90
3071;DHT22;1546;47.208;9.038;2022-10-16T09:20:28;19.80;99.90
3071;DHT22;1546;47.208;9.038;2022-10-16T09:23:12;19.80;99.90
3071;DHT22;1546;47.208;9.038;2022-10-16T09:25:42;19.70;99.90
3071;DHT22;1546;47.208;9.038;2022-10-16T09:28:10;19.60;99.90
3071;DHT22;1546;47.208;9.038;2022-10-16T09:30:38;19.50;99.90
3071;DHT22;1546;47.208;9.038;2022-10-16T09:33:06;19.20;99.90
3071;DHT22;1546;47.208;9.038;2022-10-16T09:35:37;19.20;99.90
3071;DHT22;1546;47.208;9.038;2022-10-16T09:38:05;19.10;99.90
3071;DHT22;1546;47.208;9.038;2022-10-16T09:40:33;19.10;99.90
3071;DHT22;1546;47.208;9.038;2022-10-16T09:43:17;19.10;99.90
3071;DHT22;1546;47.208;9.038;2022-10-16T09:45:55;19.30;99.90
3071;DHT22;1546;47.208;9.038;2022-10-16T09:48:22;19.60;99.90
3071;DHT22;1546;47.208;9.038;2022-10-16T09:50:59;19.80;99.90
3071;DHT22;1546;47.208;9.038;2022-10-16T09:53:37;19.80;99.90
3071;DHT22;1546;47.208;9.038;2022-10-16T09:56:05;20.00;99.90
3071;DHT22;1546;47.208;9.038;2022-10-16T09:58:32;20.20;99.90
3071;DHT22;1546;47.208;9.038;2022-10-16T10:01:01;20.50;99.90
3071;DHT22;1546;47.208;9.038;2022-10-16T10:03:36;20.60;99.90
3071;DHT22;1546;47.208;9.038;2022-10-16T10:06:14;20.80;99.90
3071;DHT22;1546;47.208;9.038;2022-10-16T10:08:53;20.50;99.90
3071;DHT22;1546;47.208;9.038;2022-10-16T10:14:31;20.80;99.90
3071;DHT22;1546;47.208;9.038;2022-10-16T10:17:10;21.20;99.80
3071;DHT22;1546;47.208;9.038;2022-10-16T10:19:39;21.90;98.90
3071;DHT22;1546;47.208;9.038;2022-10-16T10:22:24;22.70;98.10
3071;DHT22;1546;47.208;9.038;2022-10-16T10:28:02;23.80;97.00
3071;DHT22;1546;47.208;9.038;2022-10-16T10:30:37;24.10;96.40
3071;DHT22;1546;47.208;9.038;2022-10-16T10:33:18;23.90;96.10
3071;DHT22;1546;47.208;9.038;2022-10-16T10:35:54;23.80;96.10
3071;DHT22;1546;47.208;9.038;2022-10-16T10:38:30;24.00;96.60
3071;DHT22;1546;47.208;9.038;2022-10-16T10:41:09;24.00;96.00
3071;DHT22;1546;47.208;9.038;2022-10-16T10:43:50;24.80;95.30
3071;DHT22;1546;47.208;9.038;2022-10-16T10:46:32;25.60;94.00
3071;DHT22;1546;47.208;9.038;2022-10-16T10:49:16;25.60;93.70
3071;DHT22;1546;47.208;9.038;2022-10-16T10:51:56;26.30;93.60
3071;DHT22;1546;47.208;9.038;2022-10-16T10:54:30;26.70;92.60
3071;DHT22;1546;47.208;9.038;2022-10-16T10:57:02;26.90;91.30
3071;DHT22;1546;47.208;9.038;2022-10-16T10:59:52;27.20;91.30
3071;DHT22;1546;47.208;9.038;2022-10-16T11:02:31;27.60;90.80
3071;DHT22;1546;47.208;9.038;2022-10-16T11:05:33;27.10;90.60
3071;DHT22;1546;47.208;9.038;2022-10-16T11:08:08;27.30;90.60
3071;DHT22;1546;47.208;9.038;2022-10-16T11:10:42;27.80;88.60
3071;DHT22;1546;47.208;9.038;2022-10-16T11:13:28;27.50;90.10
3071;DHT22;1546;47.208;9.038;2022-10-16T11:15:59;26.90;90.70
3071;DHT22;1546;47.208;9.038;2022-10-16T11:18:33;27.00;91.10
3071;DHT22;1546;47.208;9.038;2022-10-16T11:21:11;26.80;90.90
3071;DHT22;1546;47.208;9.038;2022-10-16T11:23:42;27.50;90.70
3071;DHT22;1546;47.208;9.038;2022-10-16T11:26:14;28.20;90.00
3071;DHT22;1546;47.208;9.038;2022-10-16T11:28:45;29.00;87.80
3071;DHT22;1546;47.208;9.038;2022-10-16T11:31:17;29.20;86.10
3071;DHT22;1546;47.208;9.038;2022-10-16T11:33:49;29.30;84.80
3071;DHT22;1546;47.208;9.038;2022-10-16T11:36:21;29.00;84.40
3071;DHT22;1546;47.208;9.038;2022-10-16T11:38:53;29.00;85.40
3071;DHT22;1546;47.208;9.038;2022-10-16T11:41:27;29.30;84.40
3071;DHT22;1546;47.208;9.038;2022-10-16T11:44:09;29.10;84.80
3071;DHT22;1546;47.208;9.038;2022-10-16T11:46:43;28.90;85.50
3071;DHT22;1546;47.208;9.038;2022-10-16T11:49:15;28.70;85.80
3071;DHT22;1546;47.208;9.038;2022-10-16T11:51:48;28.60;86.20
3071;DHT22;1546;47.208;9.038;2022-10-16T11:54:22;28.60;85.40
3071;DHT22;1546;47.208;9.038;2022-10-16T11:56:58;28.80;84.70
3071;DHT22;1546;47.208;9.038;2022-10-16T11:59:30;29.50;83.40
3071;DHT22;1546;47.208;9.038;2022-10-16T12:02:07;29.70;83.80
3071;DHT22;1546;47.208;9.038;2022-10-16T12:04:45;29.50;84.30
3071;DHT22;1546;47.208;9.038;2022-10-16T12:07:18;29.00;85.20
3071;DHT22;1546;47.208;9.038;2022-10-16T12:09:46;29.10;84.80
3071;DHT22;1546;47.208;9.038;2022-10-16T12:12:24;29.40;83.80
3071;DHT22;1546;47.208;9.038;2022-10-16T12:15:00;29.50;83.30
3071;DHT22;1546;47.208;9.038;2022-10-16T12:17:34;29.70;82.70
3071;DHT22;1546;47.208;9.038;2022-10-16T12:20:20;30.00;82.10
3071;DHT22;1546;47.208;9.038;2022-10-16T12:22:51;31.00;80.60
3071;DHT22;1546;47.208;9.038;2022-10-16T12:25:26;32.00;76.40
3071;DHT22;1546;47.208;9.038;2022-10-16T12:27:59;32.20;77.00
3071;DHT22;1546;47.208;9.038;2022-10-16T12:30:28;32.60;74.60
3071;DHT22;1546;47.208;9.038;2022-10-16T12:32:56;32.30;74.80
3071;DHT22;1546;47.208;9.038;2022-10-16T12:35:26;32.50;74.30
3071;DHT22;1546;47.208;9.038;2022-10-16T12:38:05;32.20;74.00
3071;DHT22;1546;47.208;9.038;2022-10-16T12:40:35;31.90;75.30
3071;DHT22;1546;47.208;9.038;2022-10-16T12:43:13;32.10;74.40
3071;DHT22;1546;47.208;9.038;2022-10-16T12:45:59;31.60;73.50
3071;DHT22;1546;47.208;9.038;2022-10-16T12:48:26;31.80;74.30
3071;DHT22;1546;47.208;9.038;2022-10-16T12:50:53;32.30;71.20
3071;DHT22;1546;47.208;9.038;2022-10-16T12:53:23;32.40;70.70
3071;DHT22;1546;47.208;9.038;2022-10-16T12:56:00;33.00;69.90
3071;DHT22;1546;47.208;9.038;2022-10-16T12:58:55;33.20;67.30
3071;DHT22;1546;47.208;9.038;2022-10-16T13:01:34;33.80;67.20
3071;DHT22;1546;47.208;9.038;2022-10-16T13:04:32;34.30;65.10
3071;DHT22;1546;47.208;9.038;2022-10-16T13:07:16;34.20;62.90
3071;DHT22;1546;47.208;9.038;2022-10-16T13:09:55;34.20;61.50
3071;DHT22;1546;47.208;9.038;2022-10-16T13:12:39;34.30;59.70
3071;DHT22;1546;47.208;9.038;2022-10-16T13:15:22;34.40;60.70
3071;DHT22;1546;47.208;9.038;2022-10-16T13:18:00;35.00;59.80
3071;DHT22;1546;47.208;9.038;2022-10-16T13:20:33;35.60;57.60
3071;DHT22;1546;47.208;9.038;2022-10-16T13:23:08;35.70;57.00
3071;DHT22;1546;47.208;9.038;2022-10-16T13:25:50;36.30;56.30
3071;DHT22;1546;47.208;9.038;2022-10-16T13:28:26;36.40;57.10
3071;DHT22;1546;47.208;9.038;2022-10-16T13:30:55;36.50;56.60
3071;DHT22;1546;47.208;9.038;2022-10-16T13:33:29;36.30;55.10
3071;DHT22;1546;47.208;9.038;2022-10-16T13:35:57;35.90;54.40
3071;DHT22;1546;47.208;9.038;2022-10-16T13:38:25;35.40;53.20
3071;DHT22;1546;47.208;9.038;2022-10-16T13:40:56;34.90;53.00
3071;DHT22;1546;47.208;9.038;2022-10-16T13:43:27;34.30;53.30
3071;DHT22;1546;47.208;9.038;2022-10-16T13:45:59;34.10;57.50
3071;DHT22;1546;47.208;9.038;2022-10-16T13:48:27;33.80;57.50
3071;DHT22;1546;47.208;9.038;2022-10-16T13:51:02;33.50;58.50
3071;DHT22;1546;47.208;9.038;2022-10-16T13:53:31;33.30;60.40
3071;DHT22;1546;47.208;9.038;2022-10-16T13:55:59;34.00;59.80
3071;DHT22;1546;47.208;9.038;2022-10-16T13:58:26;34.70;58.20
3071;DHT22;1546;47.208;9.038;2022-10-16T14:00:56;35.20;57.80
3071;DHT22;1546;47.208;9.038;2022-10-16T14:03:24;35.60;55.10
3071;DHT22;1546;47.208;9.038;2022-10-16T14:05:53;35.70;55.20
3071;DHT22;1546;47.208;9.038;2022-10-16T14:08:20;35.80;55.10
3071;DHT22;1546;47.208;9.038;2022-10-16T14:10:50;36.00;54.80
3071;DHT22;1546;47.208;9.038;2022-10-16T14:13:20;36.50;53.50
3071;DHT22;1546;47.208;9.038;2022-10-16T14:15:50;36.90;51.60
3071;DHT22;1546;47.208;9.038;2022-10-16T14:18:20;36.60;51.60
3071;DHT22;1546;47.208;9.038;2022-10-16T14:20:48;35.40;52.50
3071;DHT22;1546;47.208;9.038;2022-10-16T14:23:21;34.60;53.70
3071;DHT22;1546;47.208;9.038;2022-10-16T14:25:49;34.10;54.50
3071;DHT22;1546;47.208;9.038;2022-10-16T14:28:18;34.40;54.60
3071;DHT22;1546;47.208;9.038;2022-10-16T14:30:53;34.70;54.70
3071;DHT22;1546;47.208;9.038;2022-10-16T14:33:23;34.70;54.40
3071;DHT22;1546;47.208;9.038;2022-10-16T14:36:02;33.80;53.30
3071;DHT22;1546;47.208;9.038;2022-10-16T14:38:30;32.30;55.60
3071;DHT22;1546;47.208;9.038;2022-10-16T14:40:58;31.00;57.50
3071;DHT22;1546;47.208;9.038;2022-10-16T14:43:32;29.90;61.30
3071;DHT22;1546;47.208;9.038;2022-10-16T14:46:00;29.40;62.70
3071;DHT22;1546;47.208;9.038;2022-10-16T14:48:28;28.90;63.60
3071;DHT22;1546;47.208;9.038;2022-10-16T14:50:55;28.30;65.50
3071;DHT22;1546;47.208;9.038;2022-10-16T14:53:22;27.90;67.30
3071;DHT22;1546;47.208;9.038;2022-10-16T14:55:49;27.60;68.30
3071;DHT22;1546;47.208;9.038;2022-10-16T14:58:18;27.10;68.40
3071;DHT22;1546;47.208;9.038;2022-10-16T15:00:47;26.80;69.80
3071;DHT22;1546;47.208;9.038;2022-10-16T15:03:14;26.60;71.90
3071;DHT22;1546;47.208;9.038;2022-10-16T15:05:41;26.30;70.70
3071;DHT22;1546;47.208;9.038;2022-10-16T15:08:09;26.20;72.20
3071;DHT22;1546;47.208;9.038;2022-10-16T15:10:39;26.00;72.80
3071;DHT22;1546;47.208;9.038;2022-10-16T15:13:08;25.80;74.40
3071;DHT22;1546;47.208;9.038;2022-10-16T15:15:37;25.80;74.40
3071;DHT22;1546;47.208;9.038;2022-10-16T15:18:05;25.70;73.80
3071;DHT22;1546;47.208;9.038;2022-10-16T15:20:33;25.40;78.70
3071;DHT22;1546;47.208;9.038;2022-10-16T15:23:01;25.00;79.70
3071;DHT22;1546;47.208;9.038;2022-10-16T15:25:35;24.80;81.60
3071;DHT22;1546;47.208;9.038;2022-10-16T15:28:04;24.50;84.20
3071;DHT22;1546;47.208;9.038;2022-10-16T15:30:31;24.00;86.20
3071;DHT22;1546;47.208;9.038;2022-10-16T15:32:58;23.50;88.10
3071;DHT22;1546;47.208;9.038;2022-10-16T15:35:26;23.00;90.30
3071;DHT22;1546;47.208;9.038;2022-10-16T15:37:53;22.60;91.30
3071;DHT22;1546;47.208;9.038;2022-10-16T15:40:21;22.30;92.80
3071;DHT22;1546;47.208;9.038;2022-10-16T15:42:48;22.00;93.90
3071;DHT22;1546;47.208;9.038;2022-10-16T15:45:16;21.70;95.30
3071;DHT22;1546;47.208;9.038;2022-10-16T15:47:43;21.50;96.70
3071;DHT22;1546;47.208;9.038;2022-10-16T15:50:11;21.40;96.70
3071;DHT22;1546;47.208;9.038;2022-10-16T15:52:40;21.30;97.70
3071;DHT22;1546;47.208;9.038;2022-10-16T15:55:07;21.20;98.20
3071;DHT22;1546;47.208;9.038;2022-10-16T15:57:34;21.10;99.00
3071;DHT22;1546;47.208;9.038;2022-10-16T16:00:05;21.00;99.50
3071;DHT22;1546;47.208;9.038;2022-10-16T16:02:32;21.00;99.90
3071;DHT22;1546;47.208;9.038;2022-10-16T16:04:59;21.00;99.90
3071;DHT22;1546;47.208;9.038;2022-10-16T16:07:27;20.80;99.90
3071;DHT22;1546;47.208;9.038;2022-10-16T16:09:55;20.70;99.90
3071;DHT22;1546;47.208;9.038;2022-10-16T16:12:22;20.50;99.90
3071;DHT22;1546;47.208;9.038;2022-10-16T16:14:48;20.40;99.90
3071;DHT22;1546;47.208;9.038;2022-10-16T16:17:16;20.30;99.90
3071;DHT22;1546;47.208;9.038;2022-10-16T16:19:43;20.20;99.90
3071;DHT22;1546;47.208;9.038;2022-10-16T16:22:11;20.10;99.90
3071;DHT22;1546;47.208;9.038;2022-10-16T16:24:38;19.90;99.90
3071;DHT22;1546;47.208;9.038;2022-10-16T16:27:07;19.70;99.90
3071;DHT22;1546;47.208;9.038;2022-10-16T16:29:34;19.60;99.90